createdAt,value
2019-03-04T00:01:24.189Z,11.77
2019-03-04T00:03:53.517Z,7.57
2019-03-04T00:06:22.694Z,9.33
2019-03-04T00:08:52.099Z,8.40
2019-03-04T00:11:21.557Z,8.30
2019-03-04T00:13:51.004Z,15.50
2019-03-04T00:16:23.333Z,8.17
2019-03-04T00:18:52.592Z,7.30
2019-03-04T00:21:21.892Z,8.47
2019-03-04T00:23:51.147Z,6.00
2019-03-04T00:26:20.446Z,8.67
2019-03-04T00:28:50.063Z,6.07
2019-03-04T00:31:19.386Z,9.77
2019-03-04T00:33:48.978Z,8.10
2019-03-04T00:36:18.366Z,5.93
2019-03-04T00:38:47.669Z,5.53
2019-03-04T00:41:17.005Z,5.17
2019-03-04T00:43:46.254Z,5.60
2019-03-04T00:46:15.430Z,5.67
2019-03-04T00:48:46.956Z,6.60
2019-03-04T00:51:16.461Z,6.03
2019-03-04T00:53:46.212Z,3.77
2019-03-04T00:56:16.752Z,4.80
2019-03-04T00:58:47.595Z,4.43
2019-03-04T01:01:18.593Z,6.17
2019-03-04T01:03:51.541Z,3.10
2019-03-04T01:06:22.029Z,3.37
2019-03-04T01:11:55.454Z,7.40
2019-03-04T01:14:25.205Z,3.77
2019-03-04T01:16:54.984Z,2.90
2019-03-04T01:19:24.451Z,3.10
2019-03-04T01:21:53.787Z,3.93
2019-03-04T01:24:24.156Z,2.53
2019-03-04T01:26:54.770Z,1.70
2019-03-04T01:29:24.196Z,2.77
2019-03-04T01:31:58.670Z,7.53
2019-03-04T01:34:27.729Z,2.63
2019-03-04T01:36:57.182Z,3.53
2019-03-04T01:39:26.519Z,2.47
2019-03-04T01:41:56.260Z,2.70
2019-03-04T01:44:25.503Z,4.13
2019-03-04T01:46:54.820Z,2.10
2019-03-04T01:49:24.516Z,2.60
2019-03-04T01:51:53.780Z,2.80
2019-03-04T01:54:23.109Z,1.63
2019-03-04T01:56:52.504Z,2.97
2019-03-04T01:59:21.884Z,2.10
2019-03-04T02:01:52.211Z,3.27
2019-03-04T02:04:22.910Z,2.70
2019-03-04T02:06:52.216Z,2.40
2019-03-04T02:09:22.099Z,2.73
2019-03-04T02:11:51.357Z,2.53
2019-03-04T02:14:20.985Z,2.53
2019-03-04T02:16:50.326Z,2.70
2019-03-04T02:19:19.631Z,2.40
2019-03-04T02:21:49.012Z,2.47
2019-03-04T02:24:25.442Z,1.33
2019-03-04T02:26:56.360Z,0.87
2019-03-04T02:29:25.719Z,1.47
2019-03-04T02:31:55.256Z,2.63
2019-03-04T02:34:25.747Z,2.40
2019-03-04T02:36:55.682Z,2.80
2019-03-04T02:39:25.648Z,2.70
2019-03-04T02:41:55.080Z,4.33
2019-03-04T02:44:24.616Z,2.80
2019-03-04T02:46:56.354Z,2.13
2019-03-04T02:49:25.763Z,4.60
2019-03-04T02:51:56.027Z,2.07
2019-03-04T02:54:26.561Z,2.33
2019-03-04T02:56:56.863Z,2.43
2019-03-04T02:59:28.834Z,3.20
2019-03-04T03:01:58.086Z,2.47
2019-03-04T03:04:27.661Z,2.80
2019-03-04T03:06:56.822Z,3.13
2019-03-04T03:09:26.097Z,3.10
2019-03-04T03:11:55.286Z,2.97
2019-03-04T03:14:24.559Z,3.63
2019-03-04T03:16:53.801Z,3.03
2019-03-04T03:19:23.136Z,3.20
2019-03-04T03:21:52.443Z,3.03
2019-03-04T03:24:21.621Z,3.20
2019-03-04T03:26:50.822Z,3.87
2019-03-04T03:29:20.041Z,3.83
2019-03-04T03:31:49.242Z,2.50
2019-03-04T03:34:18.480Z,3.37
2019-03-04T03:36:47.679Z,4.87
2019-03-04T03:39:16.900Z,3.40
2019-03-04T03:41:46.261Z,2.37
2019-03-04T03:44:15.436Z,3.50
2019-03-04T03:46:44.759Z,3.23
2019-03-04T03:49:13.981Z,2.53
2019-03-04T03:51:43.281Z,2.60
2019-03-04T03:54:12.568Z,3.13
2019-03-04T03:56:41.773Z,3.47
2019-03-04T03:59:11.005Z,3.03
2019-03-04T04:01:40.417Z,2.43
2019-03-04T04:04:09.807Z,4.47
2019-03-04T04:06:39.205Z,2.80
2019-03-04T04:09:08.524Z,2.20
2019-03-04T04:11:37.926Z,2.50
2019-03-04T04:14:07.277Z,2.40
2019-03-04T04:16:36.704Z,4.13
2019-03-04T04:19:05.964Z,2.77
2019-03-04T04:21:35.269Z,2.50
2019-03-04T04:24:04.532Z,2.60
2019-03-04T04:26:33.791Z,2.00
2019-03-04T04:29:09.297Z,4.50
2019-03-04T04:31:38.597Z,1.77
2019-03-04T04:34:07.795Z,1.20
2019-03-04T04:36:37.179Z,2.07
2019-03-04T04:39:08.172Z,1.60
2019-03-04T04:41:40.068Z,2.20
2019-03-04T04:44:09.355Z,2.03
2019-03-04T04:47:06.099Z,2.30
2019-03-04T04:49:35.550Z,4.23
2019-03-04T04:52:04.839Z,2.50
2019-03-04T04:54:34.180Z,3.83
2019-03-04T04:57:03.460Z,3.47
2019-03-04T04:59:32.629Z,1.67
2019-03-04T05:02:01.894Z,2.20
2019-03-04T05:04:31.723Z,2.00
2019-03-04T05:07:00.842Z,3.10
2019-03-04T05:09:30.051Z,3.80
2019-03-04T05:11:59.840Z,2.80
2019-03-04T05:14:29.169Z,2.83
2019-03-04T05:16:58.460Z,2.40
2019-03-04T05:19:27.675Z,6.30
2019-03-04T05:21:56.975Z,2.20
2019-03-04T05:24:26.263Z,2.20
2019-03-04T05:26:55.412Z,4.17
2019-03-04T05:29:24.650Z,5.30
2019-03-04T05:31:53.828Z,3.03
2019-03-04T05:34:23.004Z,2.57
2019-03-04T05:36:52.189Z,4.43
2019-03-04T05:39:21.425Z,2.70
2019-03-04T05:41:50.715Z,2.97
2019-03-04T05:44:19.990Z,2.23
2019-03-04T05:46:49.262Z,2.40
2019-03-04T05:49:18.467Z,3.30
2019-03-04T05:51:47.626Z,3.03
2019-03-04T05:54:16.902Z,2.83
2019-03-04T05:56:46.192Z,2.60
2019-03-04T05:59:19.682Z,4.70
2019-03-04T06:01:58.324Z,2.80
2019-03-04T06:04:27.482Z,4.00
2019-03-04T06:07:08.884Z,3.27
2019-03-04T06:09:38.044Z,3.90
2019-03-04T06:12:07.340Z,3.67
2019-03-04T06:14:36.588Z,3.57
2019-03-04T06:17:05.846Z,3.70
2019-03-04T06:19:35.097Z,3.90
2019-03-04T06:22:04.338Z,3.27
2019-03-04T06:24:33.578Z,4.03
2019-03-04T06:27:02.848Z,2.93
2019-03-04T06:29:32.087Z,4.63
2019-03-04T06:32:01.244Z,3.87
2019-03-04T06:34:30.426Z,29.87
2019-03-04T06:36:59.670Z,24.50
2019-03-04T06:39:28.984Z,33.13
2019-03-04T06:41:58.194Z,17.00
2019-03-04T06:44:27.435Z,13.05
2019-03-04T06:46:56.638Z,11.40
2019-03-04T06:49:25.777Z,10.82
2019-03-04T06:51:56.132Z,9.05
2019-03-04T06:55:00.833Z,10.75
2019-03-04T06:57:36.247Z,4.25
2019-03-04T07:00:32.155Z,11.03
2019-03-04T07:03:03.256Z,2.77
2019-03-04T07:05:49.063Z,2.70
2019-03-04T07:09:14.856Z,4.53
2019-03-04T07:11:53.931Z,5.17
2019-03-04T07:14:23.300Z,3.83
2019-03-04T07:16:53.213Z,3.02
2019-03-04T07:19:23.987Z,1.60
2019-03-04T07:21:53.191Z,3.15
2019-03-04T07:24:22.446Z,3.15
2019-03-04T07:26:51.634Z,5.25
2019-03-04T07:29:20.875Z,2.27
2019-03-04T07:31:50.150Z,2.30
2019-03-04T07:34:19.302Z,2.20
2019-03-04T07:36:48.612Z,3.15
2019-03-04T07:39:18.683Z,5.35
2019-03-04T07:41:49.736Z,2.45
2019-03-04T07:44:19.050Z,2.90
2019-03-04T07:46:48.251Z,2.33
2019-03-04T07:49:17.568Z,1.77
2019-03-04T07:51:47.150Z,1.12
2019-03-04T07:54:16.386Z,3.10
2019-03-04T07:56:45.565Z,1.25
2019-03-04T07:59:14.847Z,1.72
2019-03-04T08:01:44.174Z,2.08
2019-03-04T08:04:13.471Z,5.87
2019-03-04T08:06:42.717Z,3.10
2019-03-04T08:09:49.120Z,3.30
2019-03-04T08:12:45.043Z,5.83
2019-03-04T08:15:14.457Z,6.43
2019-03-04T08:17:43.653Z,3.50
2019-03-04T08:20:13.891Z,5.40
2019-03-04T08:22:43.182Z,3.50
2019-03-04T08:25:15.108Z,4.60
2019-03-04T08:27:44.333Z,3.10
2019-03-04T08:30:16.596Z,9.27
2019-03-04T08:32:45.725Z,5.60
2019-03-04T08:35:15.121Z,3.97
2019-03-04T08:37:44.597Z,4.83
2019-03-04T08:40:14.765Z,4.00
2019-03-04T08:42:44.103Z,3.50
2019-03-04T08:45:15.601Z,5.43
2019-03-04T08:47:44.804Z,2.50
2019-03-04T08:50:14.767Z,5.63
2019-03-04T08:52:44.147Z,3.77
2019-03-04T08:55:14.785Z,7.33
2019-03-04T08:57:44.156Z,4.47
2019-03-04T09:00:16.281Z,5.77
2019-03-04T09:02:45.490Z,2.97
2019-03-04T09:05:14.738Z,3.67
2019-03-04T09:07:44.117Z,6.10
2019-03-04T09:10:21.869Z,5.07
2019-03-04T09:12:51.059Z,5.17
2019-03-04T09:15:20.319Z,5.30
2019-03-04T09:17:49.622Z,7.83
2019-03-04T09:20:19.394Z,3.67
2019-03-04T09:22:48.568Z,8.80
2019-03-04T09:25:30.170Z,3.20
2019-03-04T09:27:52.947Z,5.80
2019-03-04T09:30:22.855Z,4.80
2019-03-04T09:32:52.169Z,5.20
2019-03-04T09:35:21.527Z,8.43
2019-03-04T09:37:50.709Z,4.67
2019-03-04T09:40:20.055Z,6.40
2019-03-04T09:42:49.363Z,5.73
2019-03-04T09:45:18.708Z,7.80
2019-03-04T09:47:48.163Z,4.63
2019-03-04T09:50:18.658Z,13.30
2019-03-04T09:52:47.823Z,7.53
2019-03-04T09:55:17.253Z,10.47
2019-03-04T09:57:46.527Z,14.63
2019-03-04T10:01:13.120Z,6.57
2019-03-04T10:04:11.470Z,6.73
2019-03-04T10:06:58.105Z,8.67
2019-03-04T10:10:00.843Z,6.57
2019-03-04T10:13:11.279Z,5.70
2019-03-04T10:16:08.023Z,6.07
2019-03-04T10:19:15.583Z,6.63
2019-03-04T10:22:16.734Z,5.10
2019-03-04T10:25:02.755Z,5.90
2019-03-04T10:28:04.034Z,6.30
2019-03-04T10:31:15.615Z,7.67
2019-03-04T10:34:27.661Z,10.00
2019-03-04T10:37:50.442Z,7.40
2019-03-04T10:40:38.910Z,7.90
2019-03-04T10:43:41.176Z,6.53
2019-03-04T10:46:16.762Z,7.53
2019-03-04T10:48:46.128Z,7.57
2019-03-04T10:51:15.366Z,9.10
2019-03-04T10:53:44.696Z,3.43
2019-03-04T10:56:14.026Z,6.07
2019-03-04T10:58:43.241Z,6.93
2019-03-04T11:01:13.075Z,10.50
2019-03-04T11:03:42.547Z,6.93
2019-03-04T12:42:18.442Z,2.22
2019-03-04T12:44:47.677Z,3.42
2019-03-04T12:47:17.047Z,4.00
2019-03-04T12:49:46.333Z,3.85
2019-03-04T12:52:15.590Z,2.87
2019-03-04T12:54:44.996Z,3.12
2019-03-04T12:57:15.154Z,5.47
2019-03-04T12:59:44.567Z,3.40
2019-03-04T13:02:17.329Z,3.95
2019-03-04T13:04:46.656Z,3.12
2019-03-04T13:07:15.930Z,4.15
2019-03-04T13:09:45.198Z,4.53
2019-03-04T13:12:15.798Z,4.33
2019-03-04T13:14:50.082Z,4.25
2019-03-04T13:17:24.297Z,4.50
2019-03-04T13:27:07.123Z,4.90
2019-03-04T13:29:36.701Z,5.42
2019-03-04T13:32:07.096Z,3.65
2019-03-04T13:34:38.083Z,4.92
2019-03-04T13:37:11.094Z,7.67
2019-03-04T13:39:40.971Z,3.58
2019-03-04T13:42:10.465Z,2.35
2019-03-04T13:44:40.525Z,4.05
2019-03-04T13:47:30.965Z,6.97
2019-03-04T13:50:07.103Z,3.25
2019-03-04T13:52:38.631Z,6.78
2019-03-04T13:55:09.559Z,6.87
2019-03-04T13:57:40.121Z,3.85
2019-03-04T14:00:32.099Z,6.62
2019-03-04T14:03:04.057Z,5.33
2019-03-04T14:05:33.598Z,9.73
2019-03-04T14:08:05.917Z,6.92
2019-03-04T14:10:37.343Z,3.52
2019-03-04T14:13:08.182Z,6.95
2019-03-04T14:15:39.043Z,4.15
2019-03-04T14:18:08.622Z,3.35
2019-03-04T14:20:37.922Z,5.45
2019-03-04T14:23:07.312Z,6.30
2019-03-04T14:25:40.532Z,4.90
2019-03-04T14:28:14.133Z,6.25
2019-03-04T14:30:43.647Z,7.67
2019-03-04T14:33:16.206Z,7.37
2019-03-04T14:35:45.899Z,4.70
2019-03-04T14:38:19.366Z,4.62
2019-03-04T14:41:48.433Z,5.60
2019-03-04T14:44:29.402Z,4.05
2019-03-04T14:47:00.986Z,6.45
2019-03-04T14:49:31.305Z,6.80
2019-03-04T14:52:21.041Z,5.20
2019-03-04T14:59:20.737Z,4.50
2019-03-04T15:01:49.813Z,7.90
2019-03-04T15:04:19.756Z,4.65
2019-03-04T15:06:49.467Z,6.05
2019-03-04T15:09:18.709Z,4.25
2019-03-04T15:11:53.440Z,8.48
2019-03-04T15:14:22.855Z,3.08
2019-03-04T15:16:52.141Z,7.30
2019-03-04T15:19:23.291Z,4.72
2019-03-04T15:21:52.549Z,7.05
2019-03-04T15:24:22.113Z,13.00
2019-03-04T15:26:51.609Z,4.62
2019-03-04T15:29:23.987Z,4.62
2019-03-04T15:31:53.621Z,5.80
2019-03-04T15:34:22.948Z,4.50
2019-03-04T15:36:52.344Z,7.17
2019-03-04T15:39:23.245Z,4.08
2019-03-04T15:41:55.150Z,9.78
2019-03-04T15:44:25.900Z,4.85
2019-03-04T15:46:56.587Z,3.87
2019-03-04T15:49:25.913Z,11.85
2019-03-04T15:51:56.012Z,6.95
2019-03-04T15:54:25.476Z,6.70
2019-03-04T15:56:56.177Z,9.40
2019-03-04T15:59:25.617Z,4.70
2019-03-04T16:01:57.325Z,9.43
2019-03-04T16:04:28.435Z,8.48
2019-03-04T16:06:57.971Z,4.70
2019-03-04T16:09:29.403Z,6.03
2019-03-04T16:11:58.688Z,5.95
2019-03-04T16:14:31.086Z,7.22
2019-03-04T16:17:00.440Z,5.90
2019-03-04T16:19:29.800Z,7.85
2019-03-04T16:21:59.481Z,7.33
2019-03-04T16:24:28.738Z,6.50
2019-03-04T16:26:58.358Z,4.42
2019-03-04T16:29:36.976Z,9.60
2019-03-04T16:31:58.986Z,8.95
2019-03-04T16:34:28.207Z,3.67
2019-03-04T16:36:57.517Z,3.00
2019-03-04T16:39:26.898Z,6.37
2019-03-04T16:41:56.195Z,5.05
2019-03-04T16:44:25.578Z,6.75
2019-03-04T16:46:54.729Z,11.10
2019-03-04T16:49:24.669Z,5.42
2019-03-04T16:51:53.945Z,3.77
2019-03-04T16:54:23.267Z,7.70
2019-03-04T16:56:52.625Z,5.95
2019-03-04T16:59:21.914Z,7.62
2019-03-04T17:01:51.281Z,5.40
2019-03-04T17:04:21.149Z,7.95
2019-03-04T17:06:50.479Z,5.78
2019-03-04T17:09:20.397Z,6.05
2019-03-04T17:11:49.778Z,10.08
2019-03-04T17:14:19.057Z,9.10
2019-03-04T17:16:48.768Z,6.08
2019-03-04T17:19:17.996Z,8.28
2019-03-04T17:21:47.423Z,7.25
2019-03-04T17:24:16.884Z,5.22
2019-03-04T17:26:49.159Z,9.45
2019-03-04T17:29:18.469Z,6.50
2019-03-04T17:31:47.800Z,6.70
2019-03-04T17:34:17.225Z,8.60
2019-03-04T17:36:49.505Z,5.22
2019-03-04T17:39:19.150Z,6.08
2019-03-04T17:41:48.389Z,9.13
2019-03-04T17:44:23.571Z,9.05
2019-03-04T17:46:52.793Z,10.58
2019-03-04T17:49:22.247Z,9.58
2019-03-04T17:51:51.517Z,19.70
2019-03-04T17:54:20.912Z,9.35
2019-03-04T17:56:51.580Z,3.40
2019-03-04T17:59:20.860Z,8.60
2019-03-04T18:01:55.643Z,7.20
2019-03-04T18:04:25.377Z,19.85
2019-03-04T18:06:54.747Z,19.32
2019-03-04T18:09:24.000Z,11.30
2019-03-04T18:11:54.066Z,9.48
2019-03-04T18:14:23.480Z,15.03
2019-03-04T18:16:53.483Z,9.65
2019-03-04T18:19:22.742Z,11.48
2019-03-04T18:21:52.035Z,21.70
2019-03-04T18:24:21.292Z,14.33
2019-03-04T18:27:24.324Z,14.40
2019-03-04T18:30:30.315Z,11.35
2019-03-04T18:33:52.446Z,9.58
2019-03-04T18:37:19.018Z,23.98
2019-03-04T18:40:13.692Z,14.73
2019-03-04T18:43:21.148Z,14.07
2019-03-04T18:46:43.899Z,19.80
2019-03-04T18:49:13.131Z,8.03
2019-03-04T18:51:42.424Z,11.15
2019-03-04T18:54:14.729Z,7.70
2019-03-04T18:56:45.229Z,12.00
2019-03-04T18:59:14.928Z,11.18
2019-03-04T19:01:45.045Z,6.58
2019-03-04T19:04:14.266Z,6.83
2019-03-04T19:06:43.505Z,12.13
2019-03-04T19:09:12.772Z,9.40
2019-03-04T19:11:42.005Z,5.70
2019-03-04T19:14:11.367Z,8.80
2019-03-04T19:16:41.396Z,5.15
2019-03-04T19:19:11.102Z,8.50
2019-03-04T19:21:40.586Z,33.60
2019-03-04T19:24:09.921Z,10.70
2019-03-04T19:26:39.215Z,13.55
2019-03-04T19:29:10.830Z,15.03
2019-03-04T19:31:50.547Z,20.70
2019-03-04T19:34:20.366Z,19.07
2019-03-04T19:36:50.303Z,17.52
2019-03-04T19:39:19.847Z,27.10
2019-03-04T19:41:51.663Z,19.00
2019-03-04T19:44:21.075Z,17.27
2019-03-04T19:46:53.242Z,20.60
2019-03-04T19:49:25.819Z,12.65
2019-03-04T19:51:55.899Z,12.60
2019-03-04T19:54:30.222Z,18.73
2019-03-04T19:57:00.762Z,8.78
2019-03-04T19:59:31.919Z,7.37
2019-03-04T20:02:02.162Z,6.67
2019-03-04T20:04:33.454Z,8.90
2019-03-04T20:07:03.105Z,7.90
2019-03-04T20:09:32.679Z,7.97
2019-03-04T20:12:02.090Z,7.85
2019-03-04T20:14:34.518Z,7.10
2019-03-04T20:17:09.117Z,10.78
2019-03-04T20:19:39.484Z,7.35
2019-03-04T20:22:08.903Z,7.80
2019-03-04T20:24:38.220Z,9.13
2019-03-04T20:27:07.769Z,9.08
2019-03-04T20:29:37.303Z,8.78
2019-03-04T20:32:06.831Z,10.32
2019-03-04T20:34:36.297Z,7.50
2019-03-04T20:37:08.198Z,8.93
2019-03-04T20:39:37.702Z,4.05
2019-03-04T20:42:07.182Z,7.65
2019-03-04T20:44:36.494Z,5.55
2019-03-04T20:47:06.195Z,11.20
2019-03-04T20:49:38.773Z,6.90
2019-03-04T20:52:10.135Z,4.60
2019-03-04T20:54:41.531Z,7.47
2019-03-04T20:57:10.762Z,4.50
2019-03-04T20:59:40.513Z,3.80
2019-03-04T21:02:10.357Z,12.73
2019-03-04T21:04:39.849Z,10.82
2019-03-04T21:07:09.205Z,5.37
2019-03-04T21:09:40.986Z,8.08
2019-03-04T21:12:10.861Z,9.03
2019-03-04T21:14:40.267Z,6.47
2019-03-04T21:17:09.625Z,3.95
2019-03-04T21:19:39.528Z,3.08
2019-03-04T21:22:08.897Z,1.70
2019-03-04T21:24:38.698Z,3.70
2019-03-04T21:27:14.110Z,3.90
2019-03-04T21:29:55.094Z,2.27
2019-03-04T21:32:50.108Z,1.70
2019-03-04T21:36:15.915Z,2.55
2019-03-04T21:38:45.089Z,2.45
2019-03-04T21:41:24.672Z,3.45
2019-03-04T21:44:43.761Z,3.90
2019-03-04T21:47:23.349Z,2.02
2019-03-04T21:49:54.894Z,3.42
2019-03-04T21:53:10.125Z,3.70
2019-03-04T21:55:47.036Z,3.10
2019-03-04T21:58:16.297Z,4.20
2019-03-04T22:00:47.919Z,5.00
2019-03-04T22:03:23.673Z,8.55
2019-03-04T22:05:53.129Z,3.40
2019-03-04T22:08:23.092Z,6.30
2019-03-04T22:10:53.013Z,4.72
2019-03-04T22:13:22.524Z,5.90
2019-03-04T22:15:55.345Z,5.37
2019-03-04T22:18:27.634Z,5.90
2019-03-04T22:20:57.284Z,4.55
2019-03-04T22:23:26.745Z,9.13
2019-03-04T22:26:01.955Z,7.62
2019-03-04T22:28:26.919Z,5.65
2019-03-04T22:30:56.143Z,8.58
2019-03-04T22:33:25.610Z,3.12
2019-03-04T22:35:55.049Z,7.62
2019-03-04T22:38:24.417Z,5.03
2019-03-04T22:40:53.725Z,9.80
2019-03-04T22:43:22.995Z,6.92
2019-03-04T22:45:52.473Z,4.47
2019-03-04T22:48:21.711Z,8.10
2019-03-04T22:50:50.932Z,5.78
2019-03-04T22:53:20.370Z,7.17
2019-03-04T22:55:49.909Z,6.33
2019-03-04T22:58:28.004Z,7.65
2019-03-04T23:01:46.128Z,11.03
2019-03-04T23:04:17.931Z,8.73
2019-03-04T23:07:00.211Z,7.62
2019-03-04T23:09:31.159Z,6.90
2019-03-04T23:12:09.283Z,7.92
2019-03-04T23:14:40.715Z,9.40
2019-03-04T23:17:09.985Z,13.40
2019-03-04T23:19:39.253Z,9.05
2019-03-04T23:22:08.669Z,9.23
2019-03-04T23:24:37.859Z,8.10
2019-03-04T23:27:07.145Z,9.85
2019-03-04T23:29:36.857Z,10.03
2019-03-04T23:32:06.051Z,11.45
2019-03-04T23:34:35.367Z,17.00
2019-03-04T23:37:05.307Z,12.70
2019-03-04T23:39:34.645Z,12.60
2019-03-04T23:42:03.923Z,15.05
2019-03-04T23:44:33.169Z,11.83
2019-03-04T23:47:02.365Z,12.37
2019-03-04T23:49:32.599Z,17.35
2019-03-04T23:52:03.093Z,11.93
2019-03-04T23:54:32.229Z,11.38
2019-03-04T23:57:02.080Z,15.53
2019-03-04T23:59:31.270Z,10.95
